createdAt,value
2018-10-19T00:00:37.109Z,56.99
2018-10-19T00:03:06.783Z,57.20
2018-10-19T00:05:36.471Z,56.95
2018-10-19T00:08:06.472Z,57.13
2018-10-19T00:10:36.104Z,56.96
2018-10-19T00:13:06.201Z,57.29
2018-10-19T00:15:35.930Z,57.36
2018-10-19T00:18:05.631Z,57.26
2018-10-19T00:20:35.854Z,57.48
2018-10-19T00:23:06.027Z,57.39
2018-10-19T00:25:36.090Z,57.31
2018-10-19T00:28:06.144Z,57.57
2018-10-19T00:30:35.933Z,57.30
2018-10-19T00:33:05.618Z,57.22
2018-10-19T00:35:35.723Z,57.28
2018-10-19T00:38:05.533Z,57.28
2018-10-19T00:40:35.557Z,57.28
2018-10-19T00:43:05.394Z,57.08
2018-10-19T00:45:40.109Z,57.63
2018-10-19T00:48:15.482Z,57.49
2018-10-19T00:50:45.551Z,57.42
2018-10-19T00:53:15.954Z,57.58
2018-10-19T00:55:45.530Z,57.75
2018-10-19T00:58:15.229Z,57.60
2018-10-19T01:00:45.590Z,57.54
2018-10-19T01:03:15.209Z,57.26
2018-10-19T01:05:44.869Z,57.30
2018-10-19T01:08:14.633Z,57.76
2018-10-19T01:10:44.477Z,57.54
2018-10-19T01:13:14.400Z,57.71
2018-10-19T01:15:44.511Z,57.69
2018-10-19T01:18:14.460Z,57.71
2018-10-19T01:20:44.660Z,57.54
2018-10-19T01:23:15.216Z,57.69
2018-10-19T01:25:45.174Z,57.56
2018-10-19T01:28:14.961Z,57.64
2018-10-19T01:30:45.132Z,57.79
2018-10-19T01:33:15.580Z,57.49
2018-10-19T01:35:45.391Z,57.70
2018-10-19T01:38:15.157Z,57.69
2018-10-19T01:40:44.997Z,57.66
2018-10-19T01:43:14.977Z,57.73
2018-10-19T01:45:49.591Z,57.66
2018-10-19T01:48:20.143Z,58.15
2018-10-19T01:50:49.926Z,58.10
2018-10-19T01:53:19.584Z,58.08
2018-10-19T01:55:49.661Z,58.10
2018-10-19T01:58:19.579Z,58.18
2018-10-19T02:00:49.180Z,57.92
2018-10-19T02:03:19.004Z,57.95
2018-10-19T02:05:48.883Z,58.09
2018-10-19T02:08:18.590Z,58.23
2018-10-19T02:10:48.387Z,58.03
2018-10-19T02:13:18.068Z,58.30
2018-10-19T02:15:47.883Z,58.08
2018-10-19T02:18:17.681Z,58.18
2018-10-19T02:20:47.492Z,58.14
2018-10-19T02:23:17.437Z,58.06
2018-10-19T02:25:46.967Z,58.25
2018-10-19T02:28:16.771Z,58.37
2018-10-19T02:30:46.518Z,58.32
2018-10-19T02:33:16.508Z,57.95
2018-10-19T02:35:46.331Z,58.33
2018-10-19T02:38:15.988Z,58.11
2018-10-19T02:40:45.860Z,58.27
2018-10-19T02:43:15.792Z,58.23
2018-10-19T02:45:45.520Z,58.43
2018-10-19T02:48:15.239Z,58.54
2018-10-19T02:50:45.129Z,58.30
2018-10-19T02:53:15.070Z,58.63
2018-10-19T02:55:44.909Z,58.22
2018-10-19T02:58:15.015Z,58.33
2018-10-19T03:00:45.192Z,58.44
2018-10-19T03:03:14.824Z,58.30
2018-10-19T03:05:44.680Z,58.67
2018-10-19T03:08:14.631Z,58.35
2018-10-19T03:10:44.403Z,58.66
2018-10-19T03:13:14.269Z,58.66
2018-10-19T03:15:43.872Z,58.47
2018-10-19T03:18:13.693Z,58.52
2018-10-19T03:20:43.509Z,58.59
2018-10-19T03:23:13.243Z,58.44
2018-10-19T03:25:43.622Z,58.53
2018-10-19T03:28:13.540Z,58.26
2018-10-19T03:30:43.538Z,58.49
2018-10-19T03:33:13.588Z,58.87
2018-10-19T03:35:43.642Z,58.86
2018-10-19T03:38:13.467Z,58.44
2018-10-19T03:40:43.689Z,58.37
2018-10-19T03:43:13.700Z,58.36
2018-10-19T03:45:43.418Z,58.64
2018-10-19T03:48:13.346Z,58.84
2018-10-19T03:50:43.092Z,58.28
2018-10-19T03:53:13.042Z,58.54
2018-10-19T03:55:47.151Z,58.50
2018-10-19T03:58:16.907Z,58.57
2018-10-19T04:00:46.592Z,58.83
2018-10-19T04:03:16.556Z,58.74
2018-10-19T04:05:46.350Z,58.79
2018-10-19T04:08:16.132Z,58.55
2018-10-19T04:10:46.441Z,58.49
2018-10-19T04:13:16.578Z,58.44
2018-10-19T04:15:46.360Z,58.64
2018-10-19T04:18:16.164Z,58.94
2018-10-19T04:20:45.808Z,58.72
2018-10-19T04:23:15.640Z,58.52
2018-10-19T04:25:45.836Z,58.78
2018-10-19T04:28:15.716Z,58.40
2018-10-19T04:30:45.369Z,58.89
2018-10-19T04:33:15.064Z,58.95
2018-10-19T04:35:45.176Z,58.60
2018-10-19T04:38:14.882Z,59.04
2018-10-19T04:40:45.176Z,59.03
2018-10-19T04:43:14.915Z,58.74
2018-10-19T04:45:44.548Z,58.89
2018-10-19T04:48:14.357Z,59.10
2018-10-19T04:50:44.432Z,59.03
2018-10-19T04:53:14.330Z,58.86
2018-10-19T04:55:44.181Z,58.98
2018-10-19T04:58:13.833Z,58.75
2018-10-19T05:00:44.147Z,58.53
2018-10-19T05:03:14.230Z,58.72
2018-10-19T05:05:44.305Z,58.60
2018-10-19T05:08:14.000Z,58.38
2018-10-19T05:10:43.873Z,58.44
2018-10-19T05:13:13.581Z,58.46
2018-10-19T05:15:44.184Z,58.22
2018-10-19T05:18:14.200Z,58.51
2018-10-19T05:20:44.203Z,58.22
2018-10-19T05:23:14.246Z,58.45
2018-10-19T05:25:44.196Z,58.30
2018-10-19T05:28:13.741Z,58.04
2018-10-19T05:30:43.377Z,58.06
2018-10-19T05:33:13.090Z,57.57
2018-10-19T05:35:42.706Z,57.64
2018-10-19T05:38:12.524Z,57.41
2018-10-19T05:40:42.413Z,57.73
2018-10-19T05:43:12.659Z,57.49
2018-10-19T05:45:43.198Z,57.43
2018-10-19T05:48:12.980Z,57.16
2018-10-19T05:50:42.775Z,57.33
2018-10-19T05:53:13.827Z,57.42
2018-10-19T05:55:43.528Z,57.37
2018-10-19T05:58:13.351Z,56.87
2018-10-19T06:00:42.971Z,57.22
2018-10-19T06:03:12.768Z,56.87
2018-10-19T06:05:42.540Z,56.87
2018-10-19T06:08:12.643Z,56.93
2018-10-19T06:10:42.303Z,56.76
2018-10-19T06:13:13.082Z,56.77
2018-10-19T06:15:43.573Z,56.95
2018-10-19T06:18:13.194Z,56.81
2018-10-19T06:20:46.827Z,56.74
2018-10-19T06:23:16.992Z,56.82
2018-10-19T06:25:46.948Z,56.92
2018-10-19T06:28:17.191Z,56.97
2018-10-19T06:30:47.348Z,57.02
2018-10-19T06:33:16.929Z,56.61
2018-10-19T06:35:46.564Z,56.96
2018-10-19T06:38:16.826Z,56.94
2018-10-19T06:40:46.454Z,56.57
2018-10-19T06:43:16.116Z,56.50
2018-10-19T06:45:46.020Z,56.71
2018-10-19T06:48:16.731Z,56.29
2018-10-19T06:50:47.311Z,56.64
2018-10-19T06:53:17.196Z,56.60
2018-10-19T06:55:46.892Z,56.38
2018-10-19T06:58:16.952Z,56.48
2018-10-19T07:00:47.091Z,56.32
2018-10-19T07:03:16.857Z,56.43
2018-10-19T07:05:47.381Z,56.55
2018-10-19T07:08:16.916Z,56.19
2018-10-19T07:10:48.464Z,56.10
2018-10-19T07:13:18.060Z,56.00
2018-10-19T07:15:47.789Z,56.04
2018-10-19T07:18:17.500Z,56.27
2018-10-19T07:20:47.640Z,55.83
2018-10-19T07:23:18.105Z,55.69
2018-10-19T07:25:48.089Z,55.93
2018-10-19T07:28:18.686Z,55.90
2018-10-19T07:30:49.612Z,55.68
2018-10-19T07:33:20.064Z,55.79
2018-10-19T07:35:50.551Z,55.76
2018-10-19T07:38:20.356Z,55.43
2018-10-19T07:40:51.717Z,55.72
2018-10-19T07:43:21.582Z,55.82
2018-10-19T07:45:51.399Z,55.35
2018-10-19T07:48:21.612Z,55.20
2018-10-19T07:50:51.954Z,55.46
2018-10-19T07:53:22.101Z,55.21
2018-10-19T07:55:51.944Z,55.46
2018-10-19T07:58:22.621Z,55.29
2018-10-19T08:00:52.551Z,55.39
2018-10-19T08:03:22.267Z,55.38
2018-10-19T08:05:52.025Z,54.93
2018-10-19T08:08:21.779Z,55.25
2018-10-19T08:10:51.500Z,55.03
2018-10-19T08:13:21.232Z,55.34
2018-10-19T08:15:51.399Z,55.12
2018-10-19T08:18:21.024Z,55.05
2018-10-19T08:20:50.804Z,54.89
2018-10-19T08:23:25.568Z,55.05
2018-10-19T08:25:56.433Z,54.95
2018-10-19T08:28:27.162Z,54.98
2018-10-19T08:30:57.164Z,55.24
2018-10-19T08:33:26.816Z,54.97
2018-10-19T08:35:57.806Z,55.16
2018-10-19T08:38:27.316Z,55.17
2018-10-19T08:40:56.856Z,54.69
2018-10-19T08:43:26.722Z,55.21
2018-10-19T08:46:02.318Z,55.05
2018-10-19T08:48:32.489Z,55.07
2018-10-19T08:51:02.933Z,54.87
2018-10-19T08:53:32.549Z,54.91
2018-10-19T08:56:02.752Z,55.01
2018-10-19T08:58:32.349Z,54.92
2018-10-19T09:01:02.024Z,54.56
2018-10-19T09:03:32.138Z,54.79
2018-10-19T09:06:02.214Z,54.72
2018-10-19T09:08:31.976Z,54.80
2018-10-19T09:11:01.534Z,54.18
2018-10-19T09:13:31.171Z,54.62
2018-10-19T09:16:01.048Z,54.06
2018-10-19T09:18:30.720Z,54.58
2018-10-19T09:21:02.801Z,54.44
2018-10-19T09:23:34.016Z,54.52
2018-10-19T09:26:03.958Z,54.37
2018-10-19T09:28:35.261Z,54.24
2018-10-19T09:31:05.180Z,54.34
2018-10-19T09:33:35.130Z,54.06
2018-10-19T09:36:04.894Z,54.17
2018-10-19T09:38:34.784Z,53.75
2018-10-19T09:41:05.699Z,54.08
2018-10-19T09:43:36.089Z,54.15
2018-10-19T09:46:06.562Z,54.32
2018-10-19T09:48:36.631Z,54.68
2018-10-19T09:51:06.635Z,54.72
2018-10-19T09:53:36.429Z,54.89
2018-10-19T09:56:06.892Z,54.45
2018-10-19T09:58:37.869Z,54.79
2018-10-19T10:01:12.877Z,54.18
2018-10-19T10:03:43.097Z,54.63
2018-10-19T10:06:13.722Z,54.20
2018-10-19T10:08:44.088Z,54.14
2018-10-19T10:11:14.799Z,54.51
2018-10-19T10:13:44.764Z,54.26
2018-10-19T10:16:14.422Z,54.07
2018-10-19T10:18:45.316Z,53.80
2018-10-19T10:21:25.130Z,53.99
2018-10-19T10:23:57.696Z,53.80
2018-10-19T10:26:37.274Z,53.85
2018-10-19T10:29:28.747Z,53.83
2018-10-19T10:31:58.488Z,54.01
2018-10-19T10:34:28.703Z,53.81
2018-10-19T10:36:59.796Z,53.93
2018-10-19T10:39:29.671Z,53.96
2018-10-19T10:42:00.101Z,53.97
2018-10-19T10:44:31.996Z,54.18
2018-10-19T10:47:03.156Z,54.14
2018-10-19T10:49:34.105Z,54.27
2018-10-19T10:52:05.305Z,54.25
2018-10-19T10:54:35.456Z,54.33
2018-10-19T10:57:05.617Z,54.52
2018-10-19T10:59:35.325Z,54.37
2018-10-19T11:02:05.066Z,54.53
2018-10-19T11:04:34.953Z,54.48
2018-10-19T11:07:07.166Z,54.52
2018-10-19T11:09:37.176Z,54.78
2018-10-19T11:12:08.854Z,54.88
2018-10-19T11:14:39.611Z,54.96
2018-10-19T11:19:31.095Z,54.84
2018-10-19T11:22:00.718Z,55.12
2018-10-19T11:24:31.377Z,55.09
2018-10-19T11:27:01.699Z,54.78
2018-10-19T11:29:31.742Z,54.82
2018-10-19T11:32:02.099Z,54.49
2018-10-19T11:34:33.270Z,54.74
2018-10-19T11:37:04.272Z,54.77
2018-10-19T11:39:34.785Z,54.57
2018-10-19T11:42:05.357Z,54.43
2018-10-19T11:44:36.503Z,54.93
2018-10-19T11:47:07.297Z,54.64
2018-10-19T11:49:38.023Z,54.61
2018-10-19T11:52:07.832Z,54.97
2018-10-19T11:54:38.258Z,54.83
2018-10-19T11:57:08.711Z,54.59
2018-10-19T11:59:39.224Z,54.65
2018-10-19T12:02:10.784Z,54.59
2018-10-19T12:04:41.109Z,54.39
2018-10-19T12:07:11.068Z,54.12
2018-10-19T12:09:41.079Z,54.14
2018-10-19T12:12:12.965Z,54.55
2018-10-19T12:14:42.875Z,54.20
2018-10-19T12:17:13.182Z,54.41
2018-10-19T12:19:43.485Z,54.34
2018-10-19T12:22:13.829Z,54.13
2018-10-19T12:24:43.503Z,54.49
2018-10-19T12:27:15.805Z,54.33
2018-10-19T12:29:46.723Z,54.47
2018-10-19T12:32:17.343Z,54.26
2018-10-19T12:34:46.812Z,54.43
2018-10-19T12:37:16.405Z,54.28
2018-10-19T12:39:46.090Z,54.34
2018-10-19T12:42:18.085Z,54.47
2018-10-19T12:44:47.844Z,54.23
2018-10-19T12:47:43.605Z,54.64
2018-10-19T12:50:13.177Z,54.52
2018-10-19T12:52:44.285Z,54.54
2018-10-19T12:55:14.291Z,54.68
2018-10-19T12:57:44.416Z,54.29
2018-10-19T13:00:14.531Z,54.37
2018-10-19T13:02:44.284Z,54.40
2018-10-19T13:05:13.756Z,54.03
2018-10-19T13:07:43.497Z,54.58
2018-10-19T13:10:13.359Z,54.67
2018-10-19T13:12:43.125Z,54.47
2018-10-19T13:15:13.252Z,54.27
2018-10-19T13:17:42.993Z,54.26
2018-10-19T13:20:12.894Z,54.34
2018-10-19T13:22:43.084Z,54.51
2018-10-19T13:25:12.788Z,54.33
2018-10-19T13:27:42.515Z,54.49
2018-10-19T13:30:12.237Z,54.19
2018-10-19T13:32:42.265Z,54.25
2018-10-19T13:35:12.697Z,54.13
2018-10-19T13:37:42.570Z,54.32
2018-10-19T13:40:12.815Z,54.29
2018-10-19T13:42:44.506Z,54.42
2018-10-19T13:45:14.936Z,53.95
2018-10-19T13:47:44.861Z,54.11
2018-10-19T13:50:15.105Z,54.19
2018-10-19T13:52:45.496Z,53.99
2018-10-19T13:55:15.185Z,54.18
2018-10-19T13:57:44.955Z,54.44
2018-10-19T14:00:14.729Z,54.60
2018-10-19T14:02:44.220Z,54.71
2018-10-19T14:05:13.819Z,54.86
2018-10-19T14:07:45.173Z,55.11
2018-10-19T14:10:14.645Z,55.10
2018-10-19T14:15:21.712Z,54.80
2018-10-19T14:17:52.091Z,54.37
2018-10-19T14:20:22.428Z,54.74
2018-10-19T14:22:53.741Z,54.74
2018-10-19T14:25:23.403Z,54.71
2018-10-19T14:27:53.088Z,55.15
2018-10-19T14:30:23.181Z,55.10
2018-10-19T14:32:52.926Z,55.25
2018-10-19T14:35:22.620Z,55.42
2018-10-19T14:37:52.718Z,55.14
2018-10-19T14:40:22.469Z,55.41
2018-10-19T14:42:53.700Z,55.23
2018-10-19T14:45:23.322Z,55.47
2018-10-19T14:47:53.481Z,55.15
2018-10-19T14:50:23.467Z,55.07
2018-10-19T14:52:53.556Z,55.47
2018-10-19T14:55:23.154Z,55.30
2018-10-19T14:57:53.393Z,55.16
2018-10-19T15:00:23.116Z,55.21
2018-10-19T15:02:53.426Z,55.22
2018-10-19T15:05:24.754Z,54.94
2018-10-19T15:07:57.944Z,55.09
2018-10-19T15:10:28.370Z,55.33
2018-10-19T15:12:58.616Z,55.34
2018-10-19T15:15:28.920Z,55.51
2018-10-19T15:17:58.504Z,55.82
2018-10-19T15:20:28.502Z,55.67
2018-10-19T15:22:58.545Z,56.08
2018-10-19T15:25:28.260Z,56.31
2018-10-19T15:27:57.832Z,56.15
2018-10-19T15:30:27.269Z,56.47
2018-10-19T15:32:58.251Z,56.53
2018-10-19T15:35:27.752Z,56.83
2018-10-19T15:38:02.798Z,57.20
2018-10-19T15:40:33.282Z,57.04
2018-10-19T15:43:03.551Z,57.19
2018-10-19T15:45:33.324Z,57.22
2018-10-19T15:48:03.541Z,57.11
2018-10-19T15:50:33.394Z,57.36
2018-10-19T15:53:03.600Z,57.15
2018-10-19T15:55:34.230Z,57.65
2018-10-19T15:58:04.397Z,57.31
2018-10-19T16:00:34.911Z,57.73
2018-10-19T16:03:04.439Z,57.75
2018-10-19T16:05:34.103Z,57.89
2018-10-19T16:08:04.017Z,57.97
2018-10-19T16:10:33.534Z,57.96
2018-10-19T16:13:03.233Z,58.13
2018-10-19T16:15:33.140Z,58.06
2018-10-19T16:18:02.717Z,58.13
2018-10-19T16:20:32.678Z,58.65
2018-10-19T16:23:02.164Z,58.22
2018-10-19T16:25:31.968Z,58.38
2018-10-19T16:28:01.673Z,58.49
2018-10-19T16:30:31.291Z,58.41
2018-10-19T16:33:00.968Z,58.39
2018-10-19T16:35:30.399Z,58.70
2018-10-19T16:37:59.916Z,58.75
2018-10-19T16:40:29.355Z,59.01
2018-10-19T16:43:00.628Z,58.65
2018-10-19T16:45:30.457Z,58.74
2018-10-19T16:48:00.458Z,58.91
2018-10-19T16:50:30.289Z,58.84
2018-10-19T16:52:59.949Z,58.90
2018-10-19T16:55:29.588Z,59.01
2018-10-19T16:57:59.280Z,58.66
2018-10-19T17:00:31.399Z,58.85
2018-10-19T17:03:01.145Z,58.66
2018-10-19T17:05:30.574Z,58.61
2018-10-19T17:08:00.420Z,58.67
2018-10-19T17:10:29.824Z,58.46
2018-10-19T17:12:59.696Z,58.44
2018-10-19T17:15:29.114Z,58.45
2018-10-19T17:17:59.388Z,58.46
2018-10-19T17:20:29.851Z,58.32
2018-10-19T17:23:00.459Z,58.30
2018-10-19T17:25:30.244Z,58.05
2018-10-19T17:28:00.556Z,58.13
2018-10-19T17:30:30.703Z,58.61
2018-10-19T17:33:01.216Z,58.42
2018-10-19T17:35:31.195Z,58.50
2018-10-19T17:38:01.399Z,58.72
2018-10-19T17:40:32.602Z,58.69
2018-10-19T17:43:02.635Z,58.81
2018-10-19T17:45:33.178Z,59.00
2018-10-19T17:48:03.433Z,59.04
2018-10-19T17:50:34.444Z,58.95
2018-10-19T17:53:05.224Z,58.94
2018-10-19T17:55:34.656Z,59.25
2018-10-19T17:58:04.395Z,59.35
2018-10-19T18:00:34.227Z,59.23
2018-10-19T18:03:04.470Z,59.33
2018-10-19T18:05:34.673Z,59.47
2018-10-19T18:08:04.355Z,59.29
2018-10-19T18:10:34.147Z,59.25
2018-10-19T18:13:04.448Z,59.29
2018-10-19T18:15:36.293Z,59.37
2018-10-19T18:18:07.925Z,59.45
2018-10-19T18:20:37.605Z,59.08
2018-10-19T18:23:07.601Z,59.19
2018-10-19T18:25:37.068Z,59.00
2018-10-19T18:28:07.073Z,59.09
2018-10-19T18:30:36.690Z,59.30
2018-10-19T18:33:07.268Z,59.36
2018-10-19T18:35:37.351Z,59.17
2018-10-19T18:38:07.711Z,58.99
2018-10-19T18:40:37.432Z,58.99
2018-10-19T18:43:07.436Z,59.22
2018-10-19T18:45:37.279Z,58.98
2018-10-19T18:48:06.695Z,58.99
2018-10-19T18:50:36.402Z,59.24
2018-10-19T18:53:06.508Z,59.07
2018-10-19T18:55:35.959Z,58.71
2018-10-19T18:58:05.396Z,58.85
2018-10-19T19:00:35.955Z,59.00
2018-10-19T19:03:06.296Z,58.88
2018-10-19T19:05:36.364Z,59.22
2018-10-19T19:08:06.639Z,58.96
2018-10-19T19:10:36.752Z,59.06
2018-10-19T19:13:11.592Z,59.14
2018-10-19T19:15:41.665Z,59.09
2018-10-19T19:18:12.424Z,59.01
2018-10-19T19:20:42.805Z,59.04
2018-10-19T19:23:13.201Z,59.01
2018-10-19T19:25:48.128Z,58.79
2018-10-19T19:28:18.272Z,59.02
2018-10-19T19:30:48.139Z,59.03
2018-10-19T19:33:23.424Z,58.90
2018-10-19T19:35:53.800Z,59.08
2018-10-19T19:38:23.717Z,58.87
2018-10-19T19:40:59.082Z,59.18
2018-10-19T19:43:28.973Z,59.01
2018-10-19T19:46:00.734Z,58.93
2018-10-19T19:48:36.434Z,59.02
2018-10-19T19:51:07.008Z,58.70
2018-10-19T19:53:37.187Z,58.97
2018-10-19T19:56:07.274Z,59.21
2018-10-19T19:58:37.081Z,58.86
2018-10-19T20:01:07.048Z,58.94
2018-10-19T20:03:37.322Z,58.87
2018-10-19T20:06:08.290Z,59.03
2018-10-19T20:08:38.204Z,59.33
2018-10-19T20:11:08.975Z,58.94
2018-10-19T20:13:38.790Z,58.88
2018-10-19T20:16:16.088Z,59.32
2018-10-19T20:18:46.205Z,59.13
2018-10-19T20:21:16.775Z,59.35
2018-10-19T20:23:47.100Z,59.25
2018-10-19T20:26:17.248Z,59.42
2018-10-19T20:28:48.183Z,59.40
2018-10-19T20:31:19.192Z,59.36
2018-10-19T20:33:49.650Z,59.45
2018-10-19T20:36:20.417Z,59.28
2018-10-19T20:38:50.432Z,59.37
2018-10-19T20:41:22.306Z,59.44
2018-10-19T20:43:52.236Z,59.39
2018-10-19T20:46:24.020Z,59.20
2018-10-19T20:48:54.316Z,59.12
2018-10-19T20:51:24.239Z,59.53
2018-10-19T20:53:54.208Z,59.40
2018-10-19T20:56:24.555Z,59.61
2018-10-19T20:58:54.482Z,59.74
2018-10-19T21:01:24.271Z,59.33
2018-10-19T21:03:54.348Z,59.68
2018-10-19T21:06:24.013Z,59.51
2018-10-19T21:08:53.860Z,59.45
2018-10-19T21:11:24.219Z,59.63
2018-10-19T21:13:53.825Z,59.67
2018-10-19T21:16:23.719Z,59.40
2018-10-19T21:18:54.606Z,59.69
2018-10-19T21:21:25.403Z,59.54
2018-10-19T21:23:56.652Z,59.58
2018-10-19T21:26:26.456Z,59.50
2018-10-19T21:28:56.172Z,59.76
2018-10-19T21:31:26.109Z,59.45
2018-10-19T21:33:56.684Z,59.61
2018-10-19T21:36:26.424Z,59.60
2018-10-19T21:38:56.273Z,59.54
2018-10-19T21:41:26.515Z,59.69
2018-10-19T21:43:57.568Z,60.01
2018-10-19T21:46:27.557Z,59.60
2018-10-19T21:48:57.475Z,59.68
2018-10-19T21:51:27.454Z,60.00
2018-10-19T21:53:57.616Z,60.06
2018-10-19T21:56:28.020Z,60.00
2018-10-19T21:58:58.012Z,60.04
2018-10-19T22:01:27.876Z,59.67
2018-10-19T22:03:57.424Z,59.76
2018-10-19T22:06:27.327Z,60.19
2018-10-19T22:08:57.096Z,59.88
2018-10-19T22:11:27.044Z,60.08
2018-10-19T22:13:57.504Z,59.60
2018-10-19T22:16:27.396Z,59.97
2018-10-19T22:18:57.611Z,60.10
2018-10-19T22:21:27.315Z,60.25
2018-10-19T22:23:57.305Z,60.06
2018-10-19T22:26:27.696Z,59.92
2018-10-19T22:28:57.594Z,59.93
2018-10-19T22:31:28.676Z,60.13
2018-10-19T22:33:58.253Z,60.05
2018-10-19T22:36:28.091Z,60.22
2018-10-19T22:38:57.708Z,60.42
2018-10-19T22:41:28.019Z,60.01
2018-10-19T22:43:57.743Z,60.51
2018-10-19T22:46:27.344Z,60.19
2018-10-19T22:48:57.395Z,60.41
2018-10-19T22:51:27.081Z,60.38
2018-10-19T22:53:57.276Z,60.67
2018-10-19T22:56:28.421Z,60.74
2018-10-19T22:58:58.278Z,60.61
2018-10-19T23:01:30.361Z,60.71
2018-10-19T23:04:01.179Z,60.59
2018-10-19T23:06:32.077Z,60.57
2018-10-19T23:09:04.563Z,60.63
2018-10-19T23:11:34.460Z,60.48
2018-10-19T23:14:03.895Z,60.45
2018-10-19T23:16:34.535Z,60.32
2018-10-19T23:19:04.964Z,60.41
2018-10-19T23:21:34.955Z,60.40
2018-10-19T23:24:04.702Z,60.58
2018-10-19T23:26:35.344Z,60.58
2018-10-19T23:29:05.469Z,60.54
2018-10-19T23:31:35.243Z,60.47
2018-10-19T23:34:05.336Z,60.70
2018-10-19T23:36:35.044Z,60.19
2018-10-19T23:39:05.342Z,60.59
2018-10-19T23:41:35.416Z,60.90
2018-10-19T23:44:05.449Z,60.71
2018-10-19T23:46:35.180Z,60.28
2018-10-19T23:49:04.838Z,60.59
2018-10-19T23:51:34.579Z,60.70
2018-10-19T23:54:04.180Z,60.41
2018-10-19T23:56:33.882Z,60.19
2018-10-19T23:59:04.135Z,60.83
